sensor_id;sensor_type;location;lat;lon;timestamp;pressure;altitude;pressure_sealevel;temperature;humidity
85266;BME280;75676;49.522;19.724;2024-03-25T00:01:38;92532.13;;;-0.22;83.48
85266;BME280;75676;49.522;19.724;2024-03-25T00:04:04;92529.06;;;-0.17;83.54
85266;BME280;75676;49.522;19.724;2024-03-25T00:06:30;92525.66;;;-0.14;82.95
85266;BME280;75676;49.522;19.724;2024-03-25T00:09:03;92527.34;;;-0.24;84.26
85266;BME280;75676;49.522;19.724;2024-03-25T00:11:29;92535.28;;;-0.11;83.54
85266;BME280;75676;49.522;19.724;2024-03-25T00:13:55;92540.19;;;0.03;83.66
85266;BME280;75676;49.522;19.724;2024-03-25T00:16:22;92533.06;;;0.07;82.73
85266;BME280;75676;49.522;19.724;2024-03-25T00:18:48;92540.31;;;0.16;83.28
85266;BME280;75676;49.522;19.724;2024-03-25T00:21:14;92542.50;;;0.17;83.54
85266;BME280;75676;49.522;19.724;2024-03-25T00:23:40;92536.69;;;0.29;83.82
85266;BME280;75676;49.522;19.724;2024-03-25T00:26:06;92541.50;;;0.31;84.54
85266;BME280;75676;49.522;19.724;2024-03-25T00:28:34;92541.81;;;0.33;84.92
85266;BME280;75676;49.522;19.724;2024-03-25T00:31:00;92541.16;;;0.29;85.91
85266;BME280;75676;49.522;19.724;2024-03-25T00:33:27;92534.44;;;0.31;86.11
85266;BME280;75676;49.522;19.724;2024-03-25T00:35:53;92532.09;;;0.37;86.50
85266;BME280;75676;49.522;19.724;2024-03-25T00:38:19;92530.53;;;0.39;86.96
85266;BME280;75676;49.522;19.724;2024-03-25T00:40:45;92526.06;;;0.40;87.14
85266;BME280;75676;49.522;19.724;2024-03-25T00:43:12;92529.50;;;0.37;87.66
85266;BME280;75676;49.522;19.724;2024-03-25T00:45:38;92519.16;;;0.33;87.59
85266;BME280;75676;49.522;19.724;2024-03-25T00:48:04;92524.34;;;0.33;87.65
85266;BME280;75676;49.522;19.724;2024-03-25T00:50:31;92526.38;;;0.26;88.21
85266;BME280;75676;49.522;19.724;2024-03-25T00:52:57;92522.13;;;0.16;89.09
85266;BME280;75676;49.522;19.724;2024-03-25T00:55:23;92525.13;;;0.14;88.86
85266;BME280;75676;49.522;19.724;2024-03-25T00:57:48;92517.94;;;0.02;89.43
85266;BME280;75676;49.522;19.724;2024-03-25T01:00:15;92524.31;;;0.17;89.58
85266;BME280;75676;49.522;19.724;2024-03-25T01:02:42;92524.59;;;0.03;89.35
85266;BME280;75676;49.522;19.724;2024-03-25T01:05:08;92517.16;;;0.05;89.95
85266;BME280;75676;49.522;19.724;2024-03-25T01:07:40;92520.06;;;0.07;89.56
85266;BME280;75676;49.522;19.724;2024-03-25T01:10:06;92524.59;;;0.03;90.31
85266;BME280;75676;49.522;19.724;2024-03-25T01:12:32;92519.00;;;0.05;90.67
85266;BME280;75676;49.522;19.724;2024-03-25T01:15:00;92513.91;;;0.17;90.42
85266;BME280;75676;49.522;19.724;2024-03-25T01:17:25;92521.41;;;0.15;90.72
85266;BME280;75676;49.522;19.724;2024-03-25T01:19:51;92516.78;;;0.23;90.75
85266;BME280;75676;49.522;19.724;2024-03-25T01:22:17;92520.31;;;0.32;90.32
85266;BME280;75676;49.522;19.724;2024-03-25T01:24:43;92519.63;;;0.28;90.15
85266;BME280;75676;49.522;19.724;2024-03-25T01:27:08;92518.16;;;0.27;90.45
85266;BME280;75676;49.522;19.724;2024-03-25T01:29:34;92522.56;;;0.30;90.03
85266;BME280;75676;49.522;19.724;2024-03-25T01:32:00;92522.91;;;0.32;89.60
85266;BME280;75676;49.522;19.724;2024-03-25T01:34:28;92525.97;;;0.27;89.60
85266;BME280;75676;49.522;19.724;2024-03-25T01:36:55;92525.03;;;0.18;90.25
85266;BME280;75676;49.522;19.724;2024-03-25T01:39:21;92516.38;;;0.24;89.78
85266;BME280;75676;49.522;19.724;2024-03-25T01:41:48;92516.72;;;0.26;89.95
85266;BME280;75676;49.522;19.724;2024-03-25T01:44:16;92523.31;;;0.31;89.82
85266;BME280;75676;49.522;19.724;2024-03-25T01:46:42;92534.44;;;0.31;89.56
85266;BME280;75676;49.522;19.724;2024-03-25T01:49:09;92527.53;;;0.41;88.84
85266;BME280;75676;49.522;19.724;2024-03-25T01:51:36;92516.75;;;0.43;88.27
85266;BME280;75676;49.522;19.724;2024-03-25T01:54:04;92523.25;;;0.51;88.73
85266;BME280;75676;49.522;19.724;2024-03-25T01:56:33;92517.75;;;0.49;88.65
85266;BME280;75676;49.522;19.724;2024-03-25T01:59:01;92520.56;;;0.54;88.52
85266;BME280;75676;49.522;19.724;2024-03-25T02:01:28;92517.56;;;0.56;87.62
85266;BME280;75676;49.522;19.724;2024-03-25T02:03:54;92517.25;;;0.54;87.75
85266;BME280;75676;49.522;19.724;2024-03-25T02:06:21;92524.97;;;0.57;87.77
85266;BME280;75676;49.522;19.724;2024-03-25T02:08:51;92514.81;;;0.63;87.39
85266;BME280;75676;49.522;19.724;2024-03-25T02:14:34;92518.00;;;0.70;87.03
85266;BME280;75676;49.522;19.724;2024-03-25T02:17:09;92510.91;;;0.71;87.24
85266;BME280;75676;49.522;19.724;2024-03-25T02:19:48;92507.75;;;0.63;87.05
85266;BME280;75676;49.522;19.724;2024-03-25T02:22:24;92506.94;;;0.66;86.72
85266;BME280;75676;49.522;19.724;2024-03-25T02:25:24;92516.59;;;0.66;86.92
85266;BME280;75676;49.522;19.724;2024-03-25T02:28:19;92511.41;;;0.66;86.99
85266;BME280;75676;49.522;19.724;2024-03-25T02:31:07;92506.38;;;0.59;87.57
85266;BME280;75676;49.522;19.724;2024-03-25T02:33:55;92511.16;;;0.60;87.45
85266;BME280;75676;49.522;19.724;2024-03-25T02:36:55;92507.16;;;0.56;87.29
85266;BME280;75676;49.522;19.724;2024-03-25T02:39:37;92504.50;;;0.59;88.11
85266;BME280;75676;49.522;19.724;2024-03-25T02:42:12;92505.69;;;0.55;87.45
85266;BME280;75676;49.522;19.724;2024-03-25T02:45:09;92514.09;;;0.62;87.22
85266;BME280;75676;49.522;19.724;2024-03-25T02:47:45;92506.53;;;0.68;86.99
85266;BME280;75676;49.522;19.724;2024-03-25T02:50:31;92505.66;;;0.58;86.98
85266;BME280;75676;49.522;19.724;2024-03-25T02:53:14;92514.19;;;0.59;86.95
85266;BME280;75676;49.522;19.724;2024-03-25T02:56:00;92514.19;;;0.59;87.08
85266;BME280;75676;49.522;19.724;2024-03-25T02:58:37;92513.50;;;0.55;87.34
85266;BME280;75676;49.522;19.724;2024-03-25T03:01:16;92521.16;;;0.62;86.99
85266;BME280;75676;49.522;19.724;2024-03-25T03:03:42;92517.34;;;0.66;86.83
85266;BME280;75676;49.522;19.724;2024-03-25T03:06:08;92521.75;;;0.69;87.00
85266;BME280;75676;49.522;19.724;2024-03-25T03:08:34;92519.53;;;0.68;86.74
85266;BME280;75676;49.522;19.724;2024-03-25T03:11:00;92517.19;;;0.73;86.81
85266;BME280;75676;49.522;19.724;2024-03-25T03:13:25;92510.13;;;0.74;87.36
85266;BME280;75676;49.522;19.724;2024-03-25T03:15:51;92510.41;;;0.60;87.31
85266;BME280;75676;49.522;19.724;2024-03-25T03:18:17;92512.38;;;0.72;86.52
85266;BME280;75676;49.522;19.724;2024-03-25T03:20:42;92510.59;;;0.69;86.66
85266;BME280;75676;49.522;19.724;2024-03-25T03:23:08;92506.44;;;0.71;86.47
85266;BME280;75676;49.522;19.724;2024-03-25T03:25:34;92503.78;;;0.75;86.38
85266;BME280;75676;49.522;19.724;2024-03-25T03:27:59;92496.63;;;0.79;86.00
85266;BME280;75676;49.522;19.724;2024-03-25T03:30:25;92498.75;;;0.84;85.35
85266;BME280;75676;49.522;19.724;2024-03-25T03:32:51;92497.75;;;0.78;85.17
85266;BME280;75676;49.522;19.724;2024-03-25T03:35:16;92496.78;;;0.72;84.71
85266;BME280;75676;49.522;19.724;2024-03-25T03:37:42;92503.28;;;0.64;84.44
85266;BME280;75676;49.522;19.724;2024-03-25T03:40:08;92504.16;;;0.41;84.88
85266;BME280;75676;49.522;19.724;2024-03-25T03:42:36;92508.97;;;0.43;85.56
85266;BME280;75676;49.522;19.724;2024-03-25T03:45:01;92497.88;;;0.38;85.76
85266;BME280;75676;49.522;19.724;2024-03-25T03:47:27;92499.81;;;0.34;86.09
85266;BME280;75676;49.522;19.724;2024-03-25T03:49:53;92503.97;;;0.32;86.46
85266;BME280;75676;49.522;19.724;2024-03-25T03:52:19;92501.69;;;0.34;86.72
85266;BME280;75676;49.522;19.724;2024-03-25T03:54:44;92500.41;;;0.26;86.78
85266;BME280;75676;49.522;19.724;2024-03-25T03:57:10;92496.81;;;0.20;87.17
85266;BME280;75676;49.522;19.724;2024-03-25T03:59:36;92498.53;;;0.26;87.32
85266;BME280;75676;49.522;19.724;2024-03-25T04:02:01;92505.00;;;0.18;87.60
85266;BME280;75676;49.522;19.724;2024-03-25T04:04:28;92495.56;;;0.08;88.00
85266;BME280;75676;49.522;19.724;2024-03-25T04:06:54;92499.28;;;0.07;88.67
85266;BME280;75676;49.522;19.724;2024-03-25T04:09:19;92494.09;;;0.07;88.78
85266;BME280;75676;49.522;19.724;2024-03-25T04:11:45;92490.34;;;0.08;88.70
85266;BME280;75676;49.522;19.724;2024-03-25T04:14:11;92500.53;;;0.19;89.05
85266;BME280;75676;49.522;19.724;2024-03-25T04:16:37;92502.66;;;0.24;88.69
85266;BME280;75676;49.522;19.724;2024-03-25T04:19:02;92507.22;;;0.36;88.33
85266;BME280;75676;49.522;19.724;2024-03-25T04:21:28;92505.38;;;0.36;88.38
85266;BME280;75676;49.522;19.724;2024-03-25T04:23:55;92508.63;;;0.40;88.18
85266;BME280;75676;49.522;19.724;2024-03-25T04:26:21;92513.81;;;0.40;88.29
85266;BME280;75676;49.522;19.724;2024-03-25T04:28:46;92509.09;;;0.35;88.47
85266;BME280;75676;49.522;19.724;2024-03-25T04:31:12;92504.06;;;0.45;87.22
85266;BME280;75676;49.522;19.724;2024-03-25T04:33:38;92509.28;;;0.45;87.74
85266;BME280;75676;49.522;19.724;2024-03-25T04:36:04;92507.88;;;0.40;88.05
85266;BME280;75676;49.522;19.724;2024-03-25T04:38:30;92506.03;;;0.40;88.54
85266;BME280;75676;49.522;19.724;2024-03-25T04:40:56;92511.00;;;0.51;87.72
85266;BME280;75676;49.522;19.724;2024-03-25T04:43:21;92509.53;;;0.50;88.01
85266;BME280;75676;49.522;19.724;2024-03-25T04:45:47;92509.38;;;0.57;88.01
85266;BME280;75676;49.522;19.724;2024-03-25T04:48:13;92512.56;;;0.65;87.45
85266;BME280;75676;49.522;19.724;2024-03-25T04:50:39;92511.00;;;0.67;84.36
85266;BME280;75676;49.522;19.724;2024-03-25T04:53:04;92509.22;;;0.64;84.24
85266;BME280;75676;49.522;19.724;2024-03-25T04:55:30;92513.53;;;0.71;83.56
85266;BME280;75676;49.522;19.724;2024-03-25T04:57:56;92514.50;;;0.77;83.21
85266;BME280;75676;49.522;19.724;2024-03-25T05:00:21;92510.03;;;0.77;82.24
85266;BME280;75676;49.522;19.724;2024-03-25T05:02:47;92503.47;;;0.89;81.92
85266;BME280;75676;49.522;19.724;2024-03-25T05:05:13;92511.09;;;0.96;82.16
85266;BME280;75676;49.522;19.724;2024-03-25T05:07:39;92507.59;;;1.03;82.99
85266;BME280;75676;49.522;19.724;2024-03-25T05:10:05;92510.13;;;0.90;83.16
85266;BME280;75676;49.522;19.724;2024-03-25T05:12:31;92512.56;;;0.97;83.51
85266;BME280;75676;49.522;19.724;2024-03-25T05:14:57;92511.25;;;1.05;83.29
85266;BME280;75676;49.522;19.724;2024-03-25T05:17:22;92509.78;;;1.04;83.97
85266;BME280;75676;49.522;19.724;2024-03-25T05:19:48;92510.19;;;1.03;83.86
85266;BME280;75676;49.522;19.724;2024-03-25T05:22:21;92506.38;;;1.23;83.62
85266;BME280;75676;49.522;19.724;2024-03-25T05:25:09;92508.56;;;1.25;82.92
85266;BME280;75676;49.522;19.724;2024-03-25T05:27:56;92512.31;;;1.08;83.67
85266;BME280;75676;49.522;19.724;2024-03-25T05:30:44;92511.25;;;1.21;84.08
85266;BME280;75676;49.522;19.724;2024-03-25T05:33:40;92515.59;;;1.41;83.64
85266;BME280;75676;49.522;19.724;2024-03-25T05:36:06;92531.88;;;1.45;83.42
85266;BME280;75676;49.522;19.724;2024-03-25T05:38:32;92523.25;;;1.48;83.17
85266;BME280;75676;49.522;19.724;2024-03-25T05:40:57;92524.25;;;1.38;83.15
85266;BME280;75676;49.522;19.724;2024-03-25T05:43:29;92515.94;;;1.43;83.59
85266;BME280;75676;49.522;19.724;2024-03-25T05:45:55;92521.78;;;1.47;83.83
85266;BME280;75676;49.522;19.724;2024-03-25T05:48:21;92532.53;;;1.49;83.04
85266;BME280;75676;49.522;19.724;2024-03-25T05:51:01;92535.47;;;1.51;82.78
85266;BME280;75676;49.522;19.724;2024-03-25T05:53:28;92529.34;;;1.41;83.52
85266;BME280;75676;49.522;19.724;2024-03-25T05:55:54;92534.66;;;1.38;83.33
85266;BME280;75676;49.522;19.724;2024-03-25T05:58:20;92538.34;;;1.24;84.11
85266;BME280;75676;49.522;19.724;2024-03-25T06:14:17;92558.19;;;1.18;87.24
85266;BME280;75676;49.522;19.724;2024-03-25T06:16:43;92564.69;;;1.10;87.55
85266;BME280;75676;49.522;19.724;2024-03-25T06:19:08;92563.47;;;0.98;88.07
85266;BME280;75676;49.522;19.724;2024-03-25T06:21:34;92560.03;;;0.85;88.59
85266;BME280;75676;49.522;19.724;2024-03-25T06:24:00;92568.97;;;0.84;88.77
85266;BME280;75676;49.522;19.724;2024-03-25T06:26:26;92564.75;;;0.90;88.65
85266;BME280;75676;49.522;19.724;2024-03-25T06:28:52;92564.91;;;0.83;89.75
85266;BME280;75676;49.522;19.724;2024-03-25T06:31:18;92572.06;;;0.79;89.49
85266;BME280;75676;49.522;19.724;2024-03-25T06:34:02;92570.59;;;0.78;89.41
85266;BME280;75676;49.522;19.724;2024-03-25T06:36:41;92568.50;;;0.89;89.92
85266;BME280;75676;49.522;19.724;2024-03-25T06:39:07;92571.59;;;0.84;89.90
85266;BME280;75676;49.522;19.724;2024-03-25T06:41:33;92565.41;;;0.94;89.71
85266;BME280;75676;49.522;19.724;2024-03-25T06:43:59;92570.28;;;0.92;89.73
85266;BME280;75676;49.522;19.724;2024-03-25T06:46:25;92574.44;;;1.06;89.38
85266;BME280;75676;49.522;19.724;2024-03-25T06:48:51;92575.97;;;0.87;90.39
85266;BME280;75676;49.522;19.724;2024-03-25T06:51:17;92580.44;;;0.87;90.22
85266;BME280;75676;49.522;19.724;2024-03-25T06:53:44;92583.13;;;0.83;90.88
85266;BME280;75676;49.522;19.724;2024-03-25T06:56:10;92583.28;;;0.92;91.16
85266;BME280;75676;49.522;19.724;2024-03-25T06:58:35;92588.44;;;0.96;91.08
85266;BME280;75676;49.522;19.724;2024-03-25T07:01:06;92584.47;;;1.07;91.10
85266;BME280;75676;49.522;19.724;2024-03-25T07:03:33;92589.31;;;1.05;91.67
85266;BME280;75676;49.522;19.724;2024-03-25T07:05:59;92589.81;;;1.16;91.28
85266;BME280;75676;49.522;19.724;2024-03-25T07:08:26;92589.56;;;1.27;91.53
85266;BME280;75676;49.522;19.724;2024-03-25T07:10:53;92590.06;;;1.38;91.39
85266;BME280;75676;49.522;19.724;2024-03-25T07:13:19;92596.16;;;1.32;90.59
85266;BME280;75676;49.522;19.724;2024-03-25T07:15:45;92595.66;;;1.37;90.28
85266;BME280;75676;49.522;19.724;2024-03-25T07:18:11;92592.19;;;1.43;88.98
85266;BME280;75676;49.522;19.724;2024-03-25T07:20:44;92594.38;;;1.61;89.20
85266;BME280;75676;49.522;19.724;2024-03-25T07:23:10;92600.06;;;1.72;89.38
85266;BME280;75676;49.522;19.724;2024-03-25T07:25:36;92597.94;;;1.67;87.91
85266;BME280;75676;49.522;19.724;2024-03-25T07:28:03;92602.16;;;1.77;88.51
85266;BME280;75676;49.522;19.724;2024-03-25T07:30:29;92599.69;;;1.86;88.39
85266;BME280;75676;49.522;19.724;2024-03-25T07:32:56;92608.66;;;1.85;88.58
85266;BME280;75676;49.522;19.724;2024-03-25T07:35:22;92603.75;;;1.87;88.04
85266;BME280;75676;49.522;19.724;2024-03-25T07:37:48;92610.94;;;1.83;87.59
85266;BME280;75676;49.522;19.724;2024-03-25T07:40:18;92614.06;;;1.62;87.96
85266;BME280;75676;49.522;19.724;2024-03-25T07:42:44;92613.47;;;1.71;89.03
85266;BME280;75676;49.522;19.724;2024-03-25T07:45:10;92625.09;;;1.82;89.02
85266;BME280;75676;49.522;19.724;2024-03-25T07:47:36;92620.84;;;2.04;89.03
85266;BME280;75676;49.522;19.724;2024-03-25T07:50:02;92623.59;;;1.97;89.16
85266;BME280;75676;49.522;19.724;2024-03-25T07:52:28;92621.47;;;2.08;88.26
85266;BME280;75676;49.522;19.724;2024-03-25T07:54:54;92615.38;;;1.99;87.98
85266;BME280;75676;49.522;19.724;2024-03-25T07:57:21;92629.50;;;1.85;88.41
85266;BME280;75676;49.522;19.724;2024-03-25T07:59:46;92626.72;;;1.92;89.20
85266;BME280;75676;49.522;19.724;2024-03-25T08:02:12;92627.19;;;2.03;89.97
85266;BME280;75676;49.522;19.724;2024-03-25T08:04:38;92627.91;;;2.04;89.23
85266;BME280;75676;49.522;19.724;2024-03-25T08:07:04;92628.19;;;1.93;88.91
85266;BME280;75676;49.522;19.724;2024-03-25T08:09:30;92629.38;;;2.05;88.99
85266;BME280;75676;49.522;19.724;2024-03-25T08:11:56;92628.97;;;2.06;89.03
85266;BME280;75676;49.522;19.724;2024-03-25T08:14:22;92624.75;;;2.25;87.97
85266;BME280;75676;49.522;19.724;2024-03-25T08:16:48;92628.22;;;2.35;88.33
85266;BME280;75676;49.522;19.724;2024-03-25T08:19:14;92626.97;;;2.27;87.79
85266;BME280;75676;49.522;19.724;2024-03-25T08:21:40;92623.69;;;2.23;87.85
85266;BME280;75676;49.522;19.724;2024-03-25T08:24:06;92629.19;;;2.41;86.41
85266;BME280;75676;49.522;19.724;2024-03-25T08:26:32;92632.94;;;2.40;86.86
85266;BME280;75676;49.522;19.724;2024-03-25T08:28:58;92628.63;;;2.33;86.55
85266;BME280;75676;49.522;19.724;2024-03-25T08:31:24;92621.94;;;2.32;86.15
85266;BME280;75676;49.522;19.724;2024-03-25T08:33:49;92616.09;;;2.28;84.92
85266;BME280;75676;49.522;19.724;2024-03-25T08:36:16;92622.63;;;2.49;84.49
85266;BME280;75676;49.522;19.724;2024-03-25T08:38:42;92629.63;;;2.52;84.79
85266;BME280;75676;49.522;19.724;2024-03-25T08:41:07;92625.06;;;2.56;84.68
85266;BME280;75676;49.522;19.724;2024-03-25T08:43:33;92627.53;;;2.47;83.68
85266;BME280;75676;49.522;19.724;2024-03-25T08:46:00;92631.22;;;2.62;83.51
85266;BME280;75676;49.522;19.724;2024-03-25T08:48:26;92635.31;;;2.63;82.10
85266;BME280;75676;49.522;19.724;2024-03-25T08:50:52;92630.09;;;2.63;84.70
85266;BME280;75676;49.522;19.724;2024-03-25T08:53:18;92636.25;;;2.82;83.69
85266;BME280;75676;49.522;19.724;2024-03-25T08:55:47;92643.69;;;2.83;81.38
85266;BME280;75676;49.522;19.724;2024-03-25T08:58:14;92642.50;;;2.59;81.64
85266;BME280;75676;49.522;19.724;2024-03-25T09:00:40;92647.22;;;2.64;83.20
85266;BME280;75676;49.522;19.724;2024-03-25T09:03:06;92642.44;;;2.88;82.86
85266;BME280;75676;49.522;19.724;2024-03-25T09:05:34;92641.81;;;2.84;82.75
85266;BME280;75676;49.522;19.724;2024-03-25T09:08:00;92647.66;;;3.13;82.73
85266;BME280;75676;49.522;19.724;2024-03-25T09:10:27;92641.31;;;3.14;80.85
85266;BME280;75676;49.522;19.724;2024-03-25T09:13:12;92650.41;;;3.48;80.11
85266;BME280;75676;49.522;19.724;2024-03-25T09:15:38;92644.22;;;3.67;79.39
85266;BME280;75676;49.522;19.724;2024-03-25T09:18:04;92646.25;;;3.85;78.91
85266;BME280;75676;49.522;19.724;2024-03-25T09:20:30;92649.31;;;3.70;78.59
85266;BME280;75676;49.522;19.724;2024-03-25T09:22:55;92645.91;;;3.61;79.74
85266;BME280;75676;49.522;19.724;2024-03-25T09:25:21;92645.38;;;3.41;79.42
85266;BME280;75676;49.522;19.724;2024-03-25T09:27:49;92641.41;;;3.36;80.52
85266;BME280;75676;49.522;19.724;2024-03-25T09:30:16;92647.59;;;3.17;81.12
85266;BME280;75676;49.522;19.724;2024-03-25T09:32:43;92651.03;;;3.39;80.37
85266;BME280;75676;49.522;19.724;2024-03-25T09:35:09;92657.72;;;3.27;80.36
85266;BME280;75676;49.522;19.724;2024-03-25T09:37:36;92653.94;;;3.41;80.03
85266;BME280;75676;49.522;19.724;2024-03-25T09:40:02;92662.09;;;3.43;80.28
85266;BME280;75676;49.522;19.724;2024-03-25T09:42:46;92670.88;;;3.24;80.68
85266;BME280;75676;49.522;19.724;2024-03-25T09:45:13;92669.88;;;2.80;80.96
85266;BME280;75676;49.522;19.724;2024-03-25T09:47:41;92674.25;;;2.83;81.85
85266;BME280;75676;49.522;19.724;2024-03-25T09:50:12;92674.09;;;2.61;83.18
85266;BME280;75676;49.522;19.724;2024-03-25T09:52:39;92675.56;;;2.62;84.76
85266;BME280;75676;49.522;19.724;2024-03-25T09:55:06;92677.72;;;2.80;85.12
85266;BME280;75676;49.522;19.724;2024-03-25T09:57:32;92684.59;;;2.74;84.72
85266;BME280;75676;49.522;19.724;2024-03-25T09:59:58;92682.94;;;2.92;84.49
85266;BME280;75676;49.522;19.724;2024-03-25T10:02:26;92683.50;;;3.00;84.94
85266;BME280;75676;49.522;19.724;2024-03-25T10:04:53;92690.00;;;3.33;85.08
85266;BME280;75676;49.522;19.724;2024-03-25T10:07:23;92686.03;;;3.67;83.62
85266;BME280;75676;49.522;19.724;2024-03-25T10:09:50;92686.66;;;3.71;84.27
85266;BME280;75676;49.522;19.724;2024-03-25T10:12:16;92691.47;;;3.72;83.15
85266;BME280;75676;49.522;19.724;2024-03-25T10:14:42;92692.78;;;3.90;82.55
85266;BME280;75676;49.522;19.724;2024-03-25T10:17:08;92692.44;;;4.00;83.79
85266;BME280;75676;49.522;19.724;2024-03-25T10:19:34;92689.94;;;4.09;82.81
85266;BME280;75676;49.522;19.724;2024-03-25T10:22:06;92687.47;;;3.68;83.72
85266;BME280;75676;49.522;19.724;2024-03-25T10:24:45;92694.28;;;3.65;83.96
85266;BME280;75676;49.522;19.724;2024-03-25T10:27:21;92683.31;;;3.70;84.70
85266;BME280;75676;49.522;19.724;2024-03-25T10:29:48;92691.94;;;3.93;83.90
85266;BME280;75676;49.522;19.724;2024-03-25T10:32:14;92684.19;;;4.02;82.15
85266;BME280;75676;49.522;19.724;2024-03-25T10:34:40;92687.34;;;3.97;83.42
85266;BME280;75676;49.522;19.724;2024-03-25T10:37:10;92691.66;;;4.25;83.94
85266;BME280;75676;49.522;19.724;2024-03-25T10:39:56;92698.06;;;4.58;81.58
85266;BME280;75676;49.522;19.724;2024-03-25T10:42:26;92690.44;;;4.73;79.17
85266;BME280;75676;49.522;19.724;2024-03-25T10:44:52;92698.66;;;4.62;76.40
85266;BME280;75676;49.522;19.724;2024-03-25T10:47:26;92691.22;;;4.61;77.62
85266;BME280;75676;49.522;19.724;2024-03-25T10:49:57;92694.00;;;5.10;78.50
85266;BME280;75676;49.522;19.724;2024-03-25T10:52:27;92695.75;;;6.88;72.59
85266;BME280;75676;49.522;19.724;2024-03-25T10:54:55;92694.41;;;6.92;69.46
85266;BME280;75676;49.522;19.724;2024-03-25T10:57:22;92690.78;;;6.71;71.03
85266;BME280;75676;49.522;19.724;2024-03-25T10:59:49;92689.63;;;6.82;71.90
85266;BME280;75676;49.522;19.724;2024-03-25T11:02:15;92693.41;;;6.71;68.71
85266;BME280;75676;49.522;19.724;2024-03-25T11:04:43;92697.16;;;6.07;71.75
85266;BME280;75676;49.522;19.724;2024-03-25T11:07:10;92690.97;;;4.90;72.11
85266;BME280;75676;49.522;19.724;2024-03-25T11:09:37;92709.97;;;4.59;75.07
85266;BME280;75676;49.522;19.724;2024-03-25T11:12:03;92711.16;;;4.46;75.11
85266;BME280;75676;49.522;19.724;2024-03-25T11:14:29;92715.91;;;4.38;75.82
85266;BME280;75676;49.522;19.724;2024-03-25T11:16:58;92718.91;;;4.02;77.07
85266;BME280;75676;49.522;19.724;2024-03-25T11:19:26;92719.66;;;3.90;78.68
85266;BME280;75676;49.522;19.724;2024-03-25T11:21:52;92715.50;;;4.27;81.10
85266;BME280;75676;49.522;19.724;2024-03-25T11:24:28;92709.75;;;5.81;78.46
85266;BME280;75676;49.522;19.724;2024-03-25T11:26:55;92717.88;;;6.14;74.48
85266;BME280;75676;49.522;19.724;2024-03-25T11:29:21;92718.59;;;5.74;74.11
85266;BME280;75676;49.522;19.724;2024-03-25T11:31:49;92707.63;;;5.27;76.73
85266;BME280;75676;49.522;19.724;2024-03-25T11:34:15;92711.34;;;4.86;77.42
85266;BME280;75676;49.522;19.724;2024-03-25T11:36:40;92704.44;;;5.63;77.41
85266;BME280;75676;49.522;19.724;2024-03-25T11:39:06;92696.19;;;6.59;75.53
85266;BME280;75676;49.522;19.724;2024-03-25T11:41:41;92695.63;;;6.46;72.85
85266;BME280;75676;49.522;19.724;2024-03-25T11:44:09;92696.66;;;6.57;71.51
85266;BME280;75676;49.522;19.724;2024-03-25T11:46:38;92697.47;;;6.18;72.81
85266;BME280;75676;49.522;19.724;2024-03-25T11:49:11;92710.75;;;6.23;73.80
85266;BME280;75676;49.522;19.724;2024-03-25T11:51:38;92741.44;;;5.34;74.64
85266;BME280;75676;49.522;19.724;2024-03-25T11:54:07;92743.03;;;4.32;75.87
85266;BME280;75676;49.522;19.724;2024-03-25T11:56:36;92737.44;;;3.95;76.86
85266;BME280;75676;49.522;19.724;2024-03-25T11:59:03;92749.25;;;3.49;77.72
85266;BME280;75676;49.522;19.724;2024-03-25T12:01:30;92743.91;;;2.86;81.24
85266;BME280;75676;49.522;19.724;2024-03-25T12:03:56;92752.56;;;2.83;82.45
85266;BME280;75676;49.522;19.724;2024-03-25T12:06:22;92751.56;;;2.64;83.06
85266;BME280;75676;49.522;19.724;2024-03-25T12:08:47;92753.41;;;2.92;83.48
85266;BME280;75676;49.522;19.724;2024-03-25T12:11:32;92758.19;;;2.81;82.65
85266;BME280;75676;49.522;19.724;2024-03-25T12:13:59;92755.00;;;2.45;83.49
85266;BME280;75676;49.522;19.724;2024-03-25T12:16:25;92747.56;;;2.15;84.61
85266;BME280;75676;49.522;19.724;2024-03-25T12:18:51;92746.09;;;2.14;84.99
85266;BME280;75676;49.522;19.724;2024-03-25T12:21:19;92747.72;;;2.07;84.80
85266;BME280;75676;49.522;19.724;2024-03-25T12:23:47;92747.97;;;1.81;85.15
85266;BME280;75676;49.522;19.724;2024-03-25T12:26:13;92750.16;;;1.82;85.95
85266;BME280;75676;49.522;19.724;2024-03-25T12:28:40;92746.22;;;1.58;85.90
85266;BME280;75676;49.522;19.724;2024-03-25T12:31:09;92742.06;;;1.44;86.34
85266;BME280;75676;49.522;19.724;2024-03-25T12:33:41;92739.50;;;1.60;86.98
85266;BME280;75676;49.522;19.724;2024-03-25T12:36:07;92736.50;;;1.78;86.14
85266;BME280;75676;49.522;19.724;2024-03-25T12:38:33;92740.47;;;2.15;85.70
85266;BME280;75676;49.522;19.724;2024-03-25T12:41:06;92750.78;;;2.35;85.13
85266;BME280;75676;49.522;19.724;2024-03-25T12:43:33;92743.84;;;2.44;85.47
85266;BME280;75676;49.522;19.724;2024-03-25T12:45:59;92739.88;;;2.69;85.66
85266;BME280;75676;49.522;19.724;2024-03-25T12:48:25;92741.69;;;3.26;85.29
85266;BME280;75676;49.522;19.724;2024-03-25T12:50:52;92744.66;;;3.78;84.17
85266;BME280;75676;49.522;19.724;2024-03-25T12:53:19;92740.28;;;3.88;85.13
85266;BME280;75676;49.522;19.724;2024-03-25T12:55:46;92733.25;;;3.85;81.50
85266;BME280;75676;49.522;19.724;2024-03-25T12:58:12;92732.72;;;3.90;81.67
85266;BME280;75676;49.522;19.724;2024-03-25T13:00:38;92733.28;;;4.32;82.98
85266;BME280;75676;49.522;19.724;2024-03-25T13:03:08;92732.25;;;4.64;82.31
85266;BME280;75676;49.522;19.724;2024-03-25T13:05:34;92723.50;;;4.58;80.54
85266;BME280;75676;49.522;19.724;2024-03-25T13:08:02;92738.06;;;4.46;80.00
85266;BME280;75676;49.522;19.724;2024-03-25T13:10:29;92732.66;;;4.28;80.52
85266;BME280;75676;49.522;19.724;2024-03-25T13:12:56;92726.88;;;4.46;81.39
85266;BME280;75676;49.522;19.724;2024-03-25T13:15:22;92735.72;;;4.61;80.58
85266;BME280;75676;49.522;19.724;2024-03-25T13:17:48;92725.78;;;4.56;80.98
85266;BME280;75676;49.522;19.724;2024-03-25T13:20:14;92727.44;;;4.62;79.55
85266;BME280;75676;49.522;19.724;2024-03-25T13:22:40;92738.00;;;4.59;78.46